sensor_id;sensor_type;location;lat;lon;timestamp;P1;durP1;ratioP1;P2;durP2;ratioP2
27003;SDS011;14546;47.590;19.022;2022-08-01T00:00:37;3.00;;;1.70;;
27003;SDS011;14546;47.590;19.022;2022-08-01T00:03:03;2.90;;;1.55;;
27003;SDS011;14546;47.590;19.022;2022-08-01T00:05:29;2.20;;;1.50;;
27003;SDS011;14546;47.590;19.022;2022-08-01T00:07:54;2.75;;;1.63;;
27003;SDS011;14546;47.590;19.022;2022-08-01T00:10:20;2.42;;;1.75;;
27003;SDS011;14546;47.590;19.022;2022-08-01T00:12:46;5.93;;;1.80;;
27003;SDS011;14546;47.590;19.022;2022-08-01T00:15:13;4.00;;;1.48;;
27003;SDS011;14546;47.590;19.022;2022-08-01T00:17:40;6.15;;;1.55;;
27003;SDS011;14546;47.590;19.022;2022-08-01T00:20:07;2.13;;;1.58;;
27003;SDS011;14546;47.590;19.022;2022-08-01T00:22:36;2.17;;;1.50;;
27003;SDS011;14546;47.590;19.022;2022-08-01T00:25:02;2.30;;;1.52;;
27003;SDS011;14546;47.590;19.022;2022-08-01T00:27:29;2.97;;;1.70;;
27003;SDS011;14546;47.590;19.022;2022-08-01T00:29:56;2.00;;;1.60;;
27003;SDS011;14546;47.590;19.022;2022-08-01T00:32:22;2.88;;;1.70;;
27003;SDS011;14546;47.590;19.022;2022-08-01T00:34:48;5.22;;;2.22;;
27003;SDS011;14546;47.590;19.022;2022-08-01T00:37:13;3.25;;;2.10;;
27003;SDS011;14546;47.590;19.022;2022-08-01T00:39:39;2.33;;;1.85;;
27003;SDS011;14546;47.590;19.022;2022-08-01T00:42:11;3.58;;;2.05;;
27003;SDS011;14546;47.590;19.022;2022-08-01T00:44:38;4.10;;;2.10;;
27003;SDS011;14546;47.590;19.022;2022-08-01T00:47:04;3.03;;;1.70;;
27003;SDS011;14546;47.590;19.022;2022-08-01T00:49:30;6.22;;;2.08;;
27003;SDS011;14546;47.590;19.022;2022-08-01T00:51:56;4.32;;;1.55;;
27003;SDS011;14546;47.590;19.022;2022-08-01T00:54:23;2.92;;;2.00;;
27003;SDS011;14546;47.590;19.022;2022-08-01T00:56:50;4.05;;;2.00;;
27003;SDS011;14546;47.590;19.022;2022-08-01T00:59:19;4.05;;;1.70;;
27003;SDS011;14546;47.590;19.022;2022-08-01T01:01:46;3.10;;;2.20;;
27003;SDS011;14546;47.590;19.022;2022-08-01T01:04:12;2.13;;;1.80;;
27003;SDS011;14546;47.590;19.022;2022-08-01T01:06:48;6.22;;;2.08;;
27003;SDS011;14546;47.590;19.022;2022-08-01T01:09:44;2.15;;;1.80;;
27003;SDS011;14546;47.590;19.022;2022-08-01T01:12:29;3.92;;;2.25;;
27003;SDS011;14546;47.590;19.022;2022-08-01T01:20:32;4.35;;;1.73;;
27003;SDS011;14546;47.590;19.022;2022-08-01T01:23:06;9.10;;;2.17;;
27003;SDS011;14546;47.590;19.022;2022-08-01T01:30:55;3.42;;;2.00;;
27003;SDS011;14546;47.590;19.022;2022-08-01T01:33:22;5.05;;;1.92;;
27003;SDS011;14546;47.590;19.022;2022-08-01T01:35:51;4.90;;;2.28;;
27003;SDS011;14546;47.590;19.022;2022-08-01T01:38:23;2.75;;;2.03;;
27003;SDS011;14546;47.590;19.022;2022-08-01T01:40:53;4.40;;;2.08;;
27003;SDS011;14546;47.590;19.022;2022-08-01T01:43:21;2.95;;;1.92;;
27003;SDS011;14546;47.590;19.022;2022-08-01T01:45:48;3.35;;;1.90;;
27003;SDS011;14546;47.590;19.022;2022-08-01T01:48:16;4.97;;;1.90;;
27003;SDS011;14546;47.590;19.022;2022-08-01T01:50:45;3.30;;;2.38;;
27003;SDS011;14546;47.590;19.022;2022-08-01T01:53:13;4.47;;;2.08;;
27003;SDS011;14546;47.590;19.022;2022-08-01T01:55:41;7.50;;;2.20;;
27003;SDS011;14546;47.590;19.022;2022-08-01T01:58:12;4.25;;;1.90;;
27003;SDS011;14546;47.590;19.022;2022-08-01T02:00:40;4.70;;;2.25;;
27003;SDS011;14546;47.590;19.022;2022-08-01T02:03:09;12.23;;;2.20;;
27003;SDS011;14546;47.590;19.022;2022-08-01T02:05:36;3.60;;;2.00;;
27003;SDS011;14546;47.590;19.022;2022-08-01T02:08:03;5.68;;;2.28;;
27003;SDS011;14546;47.590;19.022;2022-08-01T02:10:31;3.15;;;2.05;;
27003;SDS011;14546;47.590;19.022;2022-08-01T02:12:57;6.40;;;2.35;;
27003;SDS011;14546;47.590;19.022;2022-08-01T02:15:26;3.22;;;2.20;;
27003;SDS011;14546;47.590;19.022;2022-08-01T02:17:53;5.90;;;2.42;;
27003;SDS011;14546;47.590;19.022;2022-08-01T02:20:21;3.53;;;2.00;;
27003;SDS011;14546;47.590;19.022;2022-08-01T02:22:50;5.30;;;2.13;;
27003;SDS011;14546;47.590;19.022;2022-08-01T02:28:03;4.82;;;2.20;;
27003;SDS011;14546;47.590;19.022;2022-08-01T02:30:33;4.95;;;2.90;;
27003;SDS011;14546;47.590;19.022;2022-08-01T02:33:19;6.55;;;2.28;;
27003;SDS011;14546;47.590;19.022;2022-08-01T02:35:50;4.43;;;2.17;;
27003;SDS011;14546;47.590;19.022;2022-08-01T02:38:20;5.95;;;2.40;;
27003;SDS011;14546;47.590;19.022;2022-08-01T02:40:49;7.05;;;2.40;;
27003;SDS011;14546;47.590;19.022;2022-08-01T02:43:18;3.38;;;2.50;;
27003;SDS011;14546;47.590;19.022;2022-08-01T02:45:49;3.90;;;2.25;;
27003;SDS011;14546;47.590;19.022;2022-08-01T02:48:25;3.95;;;2.05;;
27003;SDS011;14546;47.590;19.022;2022-08-01T02:50:52;3.13;;;2.20;;
27003;SDS011;14546;47.590;19.022;2022-08-01T02:53:23;2.67;;;2.00;;
27003;SDS011;14546;47.590;19.022;2022-08-01T02:55:51;5.15;;;2.40;;
27003;SDS011;14546;47.590;19.022;2022-08-01T02:58:18;3.67;;;2.10;;
27003;SDS011;14546;47.590;19.022;2022-08-01T03:00:46;8.93;;;2.50;;
27003;SDS011;14546;47.590;19.022;2022-08-01T03:03:13;5.50;;;2.25;;
27003;SDS011;14546;47.590;19.022;2022-08-01T03:05:40;4.25;;;2.45;;
27003;SDS011;14546;47.590;19.022;2022-08-01T03:08:07;4.65;;;2.30;;
27003;SDS011;14546;47.590;19.022;2022-08-01T03:10:35;5.47;;;2.40;;
27003;SDS011;14546;47.590;19.022;2022-08-01T03:13:03;8.32;;;2.88;;
27003;SDS011;14546;47.590;19.022;2022-08-01T03:15:31;4.68;;;2.67;;
27003;SDS011;14546;47.590;19.022;2022-08-01T03:18:00;4.65;;;2.60;;
27003;SDS011;14546;47.590;19.022;2022-08-01T03:20:29;6.15;;;3.00;;
27003;SDS011;14546;47.590;19.022;2022-08-01T03:22:57;4.50;;;2.78;;
27003;SDS011;14546;47.590;19.022;2022-08-01T03:25:29;5.50;;;2.60;;
27003;SDS011;14546;47.590;19.022;2022-08-01T03:27:58;4.90;;;2.75;;
27003;SDS011;14546;47.590;19.022;2022-08-01T03:30:26;6.68;;;2.70;;
27003;SDS011;14546;47.590;19.022;2022-08-01T03:32:53;7.78;;;2.60;;
27003;SDS011;14546;47.590;19.022;2022-08-01T03:35:20;3.15;;;2.60;;
27003;SDS011;14546;47.590;19.022;2022-08-01T03:37:49;7.72;;;2.53;;
27003;SDS011;14546;47.590;19.022;2022-08-01T03:40:20;6.13;;;2.80;;
27003;SDS011;14546;47.590;19.022;2022-08-01T03:42:55;3.03;;;2.47;;
27003;SDS011;14546;47.590;19.022;2022-08-01T03:45:25;4.95;;;2.55;;
27003;SDS011;14546;47.590;19.022;2022-08-01T03:47:56;8.63;;;2.95;;
27003;SDS011;14546;47.590;19.022;2022-08-01T03:50:25;5.88;;;2.53;;
27003;SDS011;14546;47.590;19.022;2022-08-01T03:52:53;2.90;;;2.55;;
27003;SDS011;14546;47.590;19.022;2022-08-01T03:55:20;8.38;;;3.00;;
27003;SDS011;14546;47.590;19.022;2022-08-01T03:57:48;4.65;;;2.70;;
27003;SDS011;14546;47.590;19.022;2022-08-01T04:00:15;6.22;;;2.63;;
27003;SDS011;14546;47.590;19.022;2022-08-01T04:02:43;3.10;;;2.80;;
27003;SDS011;14546;47.590;19.022;2022-08-01T04:05:14;11.00;;;2.90;;
27003;SDS011;14546;47.590;19.022;2022-08-01T04:07:44;3.95;;;2.33;;
27003;SDS011;14546;47.590;19.022;2022-08-01T04:10:11;3.85;;;2.50;;
27003;SDS011;14546;47.590;19.022;2022-08-01T04:12:38;5.72;;;3.05;;
27003;SDS011;14546;47.590;19.022;2022-08-01T04:15:03;3.60;;;3.05;;
27003;SDS011;14546;47.590;19.022;2022-08-01T04:17:30;2.95;;;2.50;;
27003;SDS011;14546;47.590;19.022;2022-08-01T04:19:56;5.18;;;2.70;;
27003;SDS011;14546;47.590;19.022;2022-08-01T04:22:21;3.97;;;2.60;;
27003;SDS011;14546;47.590;19.022;2022-08-01T04:24:48;5.15;;;2.58;;
27003;SDS011;14546;47.590;19.022;2022-08-01T04:27:18;3.72;;;2.47;;
27003;SDS011;14546;47.590;19.022;2022-08-01T04:29:49;6.70;;;2.85;;
27003;SDS011;14546;47.590;19.022;2022-08-01T04:32:18;7.65;;;2.67;;
27003;SDS011;14546;47.590;19.022;2022-08-01T04:34:46;5.45;;;2.50;;
27003;SDS011;14546;47.590;19.022;2022-08-01T04:37:13;5.32;;;2.50;;
27003;SDS011;14546;47.590;19.022;2022-08-01T04:39:43;3.17;;;2.45;;
27003;SDS011;14546;47.590;19.022;2022-08-01T04:42:10;3.83;;;2.67;;
27003;SDS011;14546;47.590;19.022;2022-08-01T04:44:38;3.67;;;2.58;;
27003;SDS011;14546;47.590;19.022;2022-08-01T04:47:04;3.75;;;2.60;;
27003;SDS011;14546;47.590;19.022;2022-08-01T04:49:32;7.95;;;2.72;;
27003;SDS011;14546;47.590;19.022;2022-08-01T04:51:59;3.78;;;2.80;;
27003;SDS011;14546;47.590;19.022;2022-08-01T04:54:30;7.28;;;2.50;;
27003;SDS011;14546;47.590;19.022;2022-08-01T04:57:02;12.73;;;3.00;;
27003;SDS011;14546;47.590;19.022;2022-08-01T04:59:32;7.95;;;2.63;;
27003;SDS011;14546;47.590;19.022;2022-08-01T05:02:08;2.92;;;2.42;;
27003;SDS011;14546;47.590;19.022;2022-08-01T05:04:55;6.55;;;2.60;;
27003;SDS011;14546;47.590;19.022;2022-08-01T05:07:21;6.97;;;2.78;;
27003;SDS011;14546;47.590;19.022;2022-08-01T05:09:47;3.38;;;2.40;;
27003;SDS011;14546;47.590;19.022;2022-08-01T05:12:13;8.07;;;2.88;;
27003;SDS011;14546;47.590;19.022;2022-08-01T05:14:41;5.68;;;2.50;;
27003;SDS011;14546;47.590;19.022;2022-08-01T05:17:09;4.82;;;2.55;;
27003;SDS011;14546;47.590;19.022;2022-08-01T05:19:38;4.28;;;2.50;;
27003;SDS011;14546;47.590;19.022;2022-08-01T05:22:05;4.82;;;2.22;;
27003;SDS011;14546;47.590;19.022;2022-08-01T05:24:33;3.95;;;2.50;;
27003;SDS011;14546;47.590;19.022;2022-08-01T05:27:03;3.20;;;2.30;;
27003;SDS011;14546;47.590;19.022;2022-08-01T05:29:51;5.38;;;2.90;;
27003;SDS011;14546;47.590;19.022;2022-08-01T05:32:16;2.85;;;2.20;;
27003;SDS011;14546;47.590;19.022;2022-08-01T05:34:42;3.53;;;2.22;;
27003;SDS011;14546;47.590;19.022;2022-08-01T05:37:08;8.35;;;2.47;;
27003;SDS011;14546;47.590;19.022;2022-08-01T05:39:35;6.07;;;2.38;;
27003;SDS011;14546;47.590;19.022;2022-08-01T05:42:01;4.32;;;2.55;;
27003;SDS011;14546;47.590;19.022;2022-08-01T05:44:29;5.63;;;2.92;;
27003;SDS011;14546;47.590;19.022;2022-08-01T05:46:57;4.22;;;2.20;;
27003;SDS011;14546;47.590;19.022;2022-08-01T05:49:23;4.05;;;2.58;;
27003;SDS011;14546;47.590;19.022;2022-08-01T05:51:50;2.83;;;2.20;;
27003;SDS011;14546;47.590;19.022;2022-08-01T05:54:18;6.10;;;2.35;;
27003;SDS011;14546;47.590;19.022;2022-08-01T05:56:45;5.22;;;2.30;;
27003;SDS011;14546;47.590;19.022;2022-08-01T05:59:12;3.85;;;2.15;;
27003;SDS011;14546;47.590;19.022;2022-08-01T06:01:38;4.32;;;2.67;;
27003;SDS011;14546;47.590;19.022;2022-08-01T06:04:05;3.70;;;2.08;;
27003;SDS011;14546;47.590;19.022;2022-08-01T06:06:31;3.45;;;2.25;;
27003;SDS011;14546;47.590;19.022;2022-08-01T06:08:57;3.78;;;2.45;;
27003;SDS011;14546;47.590;19.022;2022-08-01T06:11:24;6.47;;;2.35;;
27003;SDS011;14546;47.590;19.022;2022-08-01T06:13:50;7.47;;;3.58;;
27003;SDS011;14546;47.590;19.022;2022-08-01T06:16:16;6.20;;;2.10;;
27003;SDS011;14546;47.590;19.022;2022-08-01T06:18:42;5.95;;;2.45;;
27003;SDS011;14546;47.590;19.022;2022-08-01T06:21:08;4.90;;;2.17;;
27003;SDS011;14546;47.590;19.022;2022-08-01T06:23:34;4.72;;;2.40;;
27003;SDS011;14546;47.590;19.022;2022-08-01T06:26:00;3.83;;;1.80;;
27003;SDS011;14546;47.590;19.022;2022-08-01T06:28:26;4.78;;;2.20;;
27003;SDS011;14546;47.590;19.022;2022-08-01T06:30:52;4.13;;;2.40;;
27003;SDS011;14546;47.590;19.022;2022-08-01T06:33:18;3.60;;;2.28;;
27003;SDS011;14546;47.590;19.022;2022-08-01T06:35:44;6.07;;;2.45;;
27003;SDS011;14546;47.590;19.022;2022-08-01T06:38:10;2.55;;;2.17;;
27003;SDS011;14546;47.590;19.022;2022-08-01T06:40:36;3.85;;;1.92;;
27003;SDS011;14546;47.590;19.022;2022-08-01T06:43:03;5.15;;;2.38;;
27003;SDS011;14546;47.590;19.022;2022-08-01T06:45:29;5.45;;;2.10;;
27003;SDS011;14546;47.590;19.022;2022-08-01T06:47:55;4.13;;;2.22;;
27003;SDS011;14546;47.590;19.022;2022-08-01T06:50:21;3.75;;;2.15;;
27003;SDS011;14546;47.590;19.022;2022-08-01T06:52:47;3.22;;;2.10;;
27003;SDS011;14546;47.590;19.022;2022-08-01T06:55:13;4.30;;;1.90;;
27003;SDS011;14546;47.590;19.022;2022-08-01T06:57:49;5.60;;;2.30;;
27003;SDS011;14546;47.590;19.022;2022-08-01T07:00:16;6.70;;;2.40;;
27003;SDS011;14546;47.590;19.022;2022-08-01T07:02:44;4.32;;;2.22;;
27003;SDS011;14546;47.590;19.022;2022-08-01T07:05:10;6.90;;;2.10;;
27003;SDS011;14546;47.590;19.022;2022-08-01T07:07:36;3.08;;;1.90;;
27003;SDS011;14546;47.590;19.022;2022-08-01T07:10:02;3.97;;;2.00;;
27003;SDS011;14546;47.590;19.022;2022-08-01T07:12:29;6.53;;;1.95;;
27003;SDS011;14546;47.590;19.022;2022-08-01T07:14:55;6.63;;;1.83;;
27003;SDS011;14546;47.590;19.022;2022-08-01T07:17:21;3.65;;;1.83;;
27003;SDS011;14546;47.590;19.022;2022-08-01T07:19:47;1.70;;;1.60;;
27003;SDS011;14546;47.590;19.022;2022-08-01T07:22:13;3.70;;;1.77;;
27003;SDS011;14546;47.590;19.022;2022-08-01T07:24:39;6.55;;;1.90;;
27003;SDS011;14546;47.590;19.022;2022-08-01T07:27:06;2.40;;;1.70;;
27003;SDS011;14546;47.590;19.022;2022-08-01T07:29:32;4.05;;;2.00;;
27003;SDS011;14546;47.590;19.022;2022-08-01T07:31:58;3.78;;;1.83;;
27003;SDS011;14546;47.590;19.022;2022-08-01T07:34:24;4.68;;;1.80;;
27003;SDS011;14546;47.590;19.022;2022-08-01T07:36:51;4.45;;;1.80;;
27003;SDS011;14546;47.590;19.022;2022-08-01T07:39:18;4.85;;;2.10;;
27003;SDS011;14546;47.590;19.022;2022-08-01T07:41:44;2.55;;;1.70;;
27003;SDS011;14546;47.590;19.022;2022-08-01T07:44:10;1.80;;;1.38;;
27003;SDS011;14546;47.590;19.022;2022-08-01T07:46:36;3.10;;;1.65;;
27003;SDS011;14546;47.590;19.022;2022-08-01T07:49:02;4.50;;;1.80;;
27003;SDS011;14546;47.590;19.022;2022-08-01T07:51:28;3.63;;;1.50;;
27003;SDS011;14546;47.590;19.022;2022-08-01T07:53:54;7.30;;;1.50;;
27003;SDS011;14546;47.590;19.022;2022-08-01T07:56:20;3.55;;;1.67;;
27003;SDS011;14546;47.590;19.022;2022-08-01T07:58:48;3.72;;;1.80;;
27003;SDS011;14546;47.590;19.022;2022-08-01T08:01:14;2.95;;;1.70;;
27003;SDS011;14546;47.590;19.022;2022-08-01T08:03:41;12.20;;;1.60;;
27003;SDS011;14546;47.590;19.022;2022-08-01T08:06:08;2.35;;;1.48;;
27003;SDS011;14546;47.590;19.022;2022-08-01T08:08:34;3.90;;;1.55;;
27003;SDS011;14546;47.590;19.022;2022-08-01T08:11:00;3.60;;;1.73;;
27003;SDS011;14546;47.590;19.022;2022-08-01T08:13:26;6.13;;;1.58;;
27003;SDS011;14546;47.590;19.022;2022-08-01T08:15:52;3.90;;;1.52;;
27003;SDS011;14546;47.590;19.022;2022-08-01T08:18:18;2.40;;;1.60;;
27003;SDS011;14546;47.590;19.022;2022-08-01T08:20:44;3.67;;;1.80;;
27003;SDS011;14546;47.590;19.022;2022-08-01T08:23:10;6.05;;;1.88;;
27003;SDS011;14546;47.590;19.022;2022-08-01T08:25:55;4.88;;;1.70;;
27003;SDS011;14546;47.590;19.022;2022-08-01T08:28:21;4.03;;;1.67;;
27003;SDS011;14546;47.590;19.022;2022-08-01T08:30:47;4.05;;;1.90;;
27003;SDS011;14546;47.590;19.022;2022-08-01T08:33:13;2.45;;;1.63;;
27003;SDS011;14546;47.590;19.022;2022-08-01T08:35:39;2.30;;;2.10;;
27003;SDS011;14546;47.590;19.022;2022-08-01T08:38:06;3.05;;;1.73;;
27003;SDS011;14546;47.590;19.022;2022-08-01T08:40:32;4.32;;;1.75;;
27003;SDS011;14546;47.590;19.022;2022-08-01T08:43:00;5.35;;;1.67;;
27003;SDS011;14546;47.590;19.022;2022-08-01T08:45:27;2.78;;;1.83;;
27003;SDS011;14546;47.590;19.022;2022-08-01T08:47:54;6.05;;;1.80;;
27003;SDS011;14546;47.590;19.022;2022-08-01T08:50:20;2.75;;;1.80;;
27003;SDS011;14546;47.590;19.022;2022-08-01T08:52:46;7.32;;;1.80;;
27003;SDS011;14546;47.590;19.022;2022-08-01T08:55:13;5.03;;;1.92;;
27003;SDS011;14546;47.590;19.022;2022-08-01T08:57:41;7.57;;;2.30;;
27003;SDS011;14546;47.590;19.022;2022-08-01T09:00:09;7.35;;;2.03;;
27003;SDS011;14546;47.590;19.022;2022-08-01T09:02:39;5.32;;;1.90;;
27003;SDS011;14546;47.590;19.022;2022-08-01T09:05:07;2.45;;;1.85;;
27003;SDS011;14546;47.590;19.022;2022-08-01T09:07:33;4.20;;;1.88;;
27003;SDS011;14546;47.590;19.022;2022-08-01T09:09:59;2.78;;;2.10;;
27003;SDS011;14546;47.590;19.022;2022-08-01T09:12:25;5.55;;;2.25;;
27003;SDS011;14546;47.590;19.022;2022-08-01T09:14:51;3.95;;;1.90;;
27003;SDS011;14546;47.590;19.022;2022-08-01T09:17:18;5.25;;;2.03;;
27003;SDS011;14546;47.590;19.022;2022-08-01T09:19:47;5.25;;;1.98;;
27003;SDS011;14546;47.590;19.022;2022-08-01T09:22:16;10.68;;;1.88;;
27003;SDS011;14546;47.590;19.022;2022-08-01T09:24:56;3.88;;;1.85;;
27003;SDS011;14546;47.590;19.022;2022-08-01T09:27:22;3.63;;;1.58;;
27003;SDS011;14546;47.590;19.022;2022-08-01T09:29:51;6.07;;;1.70;;
27003;SDS011;14546;47.590;19.022;2022-08-01T09:32:18;6.97;;;1.75;;
27003;SDS011;14546;47.590;19.022;2022-08-01T09:34:44;5.60;;;2.17;;
27003;SDS011;14546;47.590;19.022;2022-08-01T09:37:13;3.33;;;1.67;;
27003;SDS011;14546;47.590;19.022;2022-08-01T09:39:42;2.80;;;1.85;;
27003;SDS011;14546;47.590;19.022;2022-08-01T09:42:23;4.97;;;1.75;;
27003;SDS011;14546;47.590;19.022;2022-08-01T09:44:49;6.30;;;1.92;;
27003;SDS011;14546;47.590;19.022;2022-08-01T09:47:16;4.78;;;1.90;;
27003;SDS011;14546;47.590;19.022;2022-08-01T09:49:42;2.60;;;1.90;;
27003;SDS011;14546;47.590;19.022;2022-08-01T09:52:16;4.85;;;1.92;;
27003;SDS011;14546;47.590;19.022;2022-08-01T09:54:43;5.60;;;2.40;;
27003;SDS011;14546;47.590;19.022;2022-08-01T09:57:11;5.45;;;1.60;;
27003;SDS011;14546;47.590;19.022;2022-08-01T09:59:38;2.17;;;1.80;;
27003;SDS011;14546;47.590;19.022;2022-08-01T10:02:07;11.50;;;2.08;;
27003;SDS011;14546;47.590;19.022;2022-08-01T10:04:33;2.47;;;1.63;;
27003;SDS011;14546;47.590;19.022;2022-08-01T10:07:03;3.05;;;2.22;;
27003;SDS011;14546;47.590;19.022;2022-08-01T10:09:31;4.45;;;1.83;;
27003;SDS011;14546;47.590;19.022;2022-08-01T10:11:59;3.47;;;1.80;;
27003;SDS011;14546;47.590;19.022;2022-08-01T10:14:25;6.15;;;1.85;;
27003;SDS011;14546;47.590;19.022;2022-08-01T10:16:52;3.30;;;2.00;;
27003;SDS011;14546;47.590;19.022;2022-08-01T10:19:18;2.80;;;1.77;;
27003;SDS011;14546;47.590;19.022;2022-08-01T10:21:46;3.70;;;1.70;;
27003;SDS011;14546;47.590;19.022;2022-08-01T10:24:15;2.92;;;1.65;;
27003;SDS011;14546;47.590;19.022;2022-08-01T10:26:42;6.38;;;2.10;;
27003;SDS011;14546;47.590;19.022;2022-08-01T10:29:08;3.88;;;2.03;;
27003;SDS011;14546;47.590;19.022;2022-08-01T10:31:36;3.35;;;2.00;;
27003;SDS011;14546;47.590;19.022;2022-08-01T10:34:02;10.50;;;2.10;;
27003;SDS011;14546;47.590;19.022;2022-08-01T10:36:29;5.97;;;1.73;;
27003;SDS011;14546;47.590;19.022;2022-08-01T10:38:55;5.15;;;2.10;;
27003;SDS011;14546;47.590;19.022;2022-08-01T10:41:22;7.22;;;1.98;;
27003;SDS011;14546;47.590;19.022;2022-08-01T10:43:49;6.72;;;2.05;;
27003;SDS011;14546;47.590;19.022;2022-08-01T10:46:17;2.30;;;2.10;;
27003;SDS011;14546;47.590;19.022;2022-08-01T10:51:15;3.55;;;1.92;;
27003;SDS011;14546;47.590;19.022;2022-08-01T10:53:46;5.45;;;2.50;;
27003;SDS011;14546;47.590;19.022;2022-08-01T10:56:13;7.03;;;2.10;;
27003;SDS011;14546;47.590;19.022;2022-08-01T10:58:39;6.25;;;2.10;;
27003;SDS011;14546;47.590;19.022;2022-08-01T11:06:24;3.10;;;2.28;;
27003;SDS011;14546;47.590;19.022;2022-08-01T11:08:52;4.53;;;2.10;;
27003;SDS011;14546;47.590;19.022;2022-08-01T11:11:19;2.75;;;1.90;;
27003;SDS011;14546;47.590;19.022;2022-08-01T11:16:33;2.10;;;1.90;;
27003;SDS011;14546;47.590;19.022;2022-08-01T11:19:00;5.15;;;2.20;;
27003;SDS011;14546;47.590;19.022;2022-08-01T11:29:44;5.57;;;2.30;;
27003;SDS011;14546;47.590;19.022;2022-08-01T11:32:31;5.85;;;2.10;;
27003;SDS011;14546;47.590;19.022;2022-08-01T11:34:57;5.97;;;2.50;;
27003;SDS011;14546;47.590;19.022;2022-08-01T11:37:25;5.15;;;1.83;;
27003;SDS011;14546;47.590;19.022;2022-08-01T11:42:38;6.25;;;2.00;;
27003;SDS011;14546;47.590;19.022;2022-08-01T11:45:06;4.75;;;2.03;;
27003;SDS011;14546;47.590;19.022;2022-08-01T11:47:43;2.10;;;1.90;;
27003;SDS011;14546;47.590;19.022;2022-08-01T11:53:04;2.10;;;1.98;;
27003;SDS011;14546;47.590;19.022;2022-08-01T11:55:31;5.10;;;2.20;;
27003;SDS011;14546;47.590;19.022;2022-08-01T11:58:05;5.10;;;2.60;;
27003;SDS011;14546;47.590;19.022;2022-08-01T12:00:33;4.47;;;1.90;;
27003;SDS011;14546;47.590;19.022;2022-08-01T12:03:05;4.57;;;2.00;;
27003;SDS011;14546;47.590;19.022;2022-08-01T12:05:33;4.97;;;1.98;;
27003;SDS011;14546;47.590;19.022;2022-08-01T12:08:02;3.92;;;1.92;;
27003;SDS011;14546;47.590;19.022;2022-08-01T12:10:36;2.95;;;2.20;;
27003;SDS011;14546;47.590;19.022;2022-08-01T12:13:04;3.10;;;2.10;;
27003;SDS011;14546;47.590;19.022;2022-08-01T12:15:32;6.95;;;2.20;;
27003;SDS011;14546;47.590;19.022;2022-08-01T12:17:59;7.55;;;2.25;;
27003;SDS011;14546;47.590;19.022;2022-08-01T12:20:27;7.90;;;2.10;;
27003;SDS011;14546;47.590;19.022;2022-08-01T12:22:55;6.50;;;2.13;;
27003;SDS011;14546;47.590;19.022;2022-08-01T12:25:23;3.88;;;2.10;;
27003;SDS011;14546;47.590;19.022;2022-08-01T12:27:49;3.97;;;2.03;;
27003;SDS011;14546;47.590;19.022;2022-08-01T12:30:18;4.88;;;1.92;;
27003;SDS011;14546;47.590;19.022;2022-08-01T12:32:48;4.82;;;2.00;;
27003;SDS011;14546;47.590;19.022;2022-08-01T12:40:14;2.75;;;1.92;;
27003;SDS011;14546;47.590;19.022;2022-08-01T12:42:41;3.95;;;2.03;;
27003;SDS011;14546;47.590;19.022;2022-08-01T12:45:08;4.97;;;1.58;;
27003;SDS011;14546;47.590;19.022;2022-08-01T12:47:35;4.38;;;1.60;;
27003;SDS011;14546;47.590;19.022;2022-08-01T12:50:15;5.28;;;1.92;;
27003;SDS011;14546;47.590;19.022;2022-08-01T12:52:42;2.83;;;1.52;;
27003;SDS011;14546;47.590;19.022;2022-08-01T12:55:18;4.30;;;1.70;;
27003;SDS011;14546;47.590;19.022;2022-08-01T12:57:46;3.17;;;1.50;;
27003;SDS011;14546;47.590;19.022;2022-08-01T13:00:34;2.88;;;1.52;;
27003;SDS011;14546;47.590;19.022;2022-08-01T13:03:15;2.80;;;1.50;;
27003;SDS011;14546;47.590;19.022;2022-08-01T13:05:48;2.75;;;1.40;;
27003;SDS011;14546;47.590;19.022;2022-08-01T13:08:32;2.42;;;1.30;;
27003;SDS011;14546;47.590;19.022;2022-08-01T13:11:05;3.03;;;1.30;;
27003;SDS011;14546;47.590;19.022;2022-08-01T13:13:52;2.90;;;1.20;;
27003;SDS011;14546;47.590;19.022;2022-08-01T13:16:48;2.00;;;1.40;;
27003;SDS011;14546;47.590;19.022;2022-08-01T13:19:15;2.30;;;1.50;;
27003;SDS011;14546;47.590;19.022;2022-08-01T13:21:54;2.05;;;1.40;;
27003;SDS011;14546;47.590;19.022;2022-08-01T13:24:26;6.07;;;1.42;;
27003;SDS011;14546;47.590;19.022;2022-08-01T13:26:57;1.88;;;1.17;;
27003;SDS011;14546;47.590;19.022;2022-08-01T13:32:00;3.85;;;1.20;;
27003;SDS011;14546;47.590;19.022;2022-08-01T13:34:38;2.28;;;1.58;;
27003;SDS011;14546;47.590;19.022;2022-08-01T13:37:04;2.28;;;1.23;;
27003;SDS011;14546;47.590;19.022;2022-08-01T13:39:30;2.88;;;1.33;;
27003;SDS011;14546;47.590;19.022;2022-08-01T13:42:12;2.20;;;1.45;;
27003;SDS011;14546;47.590;19.022;2022-08-01T13:44:39;10.52;;;1.25;;
27003;SDS011;14546;47.590;19.022;2022-08-01T13:47:06;2.92;;;1.40;;
27003;SDS011;14546;47.590;19.022;2022-08-01T13:49:32;3.95;;;1.58;;
27003;SDS011;14546;47.590;19.022;2022-08-01T13:51:59;5.18;;;1.50;;
27003;SDS011;14546;47.590;19.022;2022-08-01T13:54:25;3.90;;;1.23;;
27003;SDS011;14546;47.590;19.022;2022-08-01T13:56:51;2.67;;;1.13;;
27003;SDS011;14546;47.590;19.022;2022-08-01T13:59:18;2.05;;;1.40;;
27003;SDS011;14546;47.590;19.022;2022-08-01T14:01:44;3.28;;;1.33;;
27003;SDS011;14546;47.590;19.022;2022-08-01T14:04:10;1.65;;;1.30;;
27003;SDS011;14546;47.590;19.022;2022-08-01T14:06:36;1.35;;;1.20;;
27003;SDS011;14546;47.590;19.022;2022-08-01T14:09:03;1.83;;;1.40;;
27003;SDS011;14546;47.590;19.022;2022-08-01T14:11:29;2.40;;;1.20;;
27003;SDS011;14546;47.590;19.022;2022-08-01T14:13:55;3.13;;;1.45;;
27003;SDS011;14546;47.590;19.022;2022-08-01T14:16:22;2.72;;;1.30;;
27003;SDS011;14546;47.590;19.022;2022-08-01T14:18:48;2.42;;;1.33;;
27003;SDS011;14546;47.590;19.022;2022-08-01T14:21:15;2.80;;;1.42;;
27003;SDS011;14546;47.590;19.022;2022-08-01T14:23:41;1.23;;;1.10;;
27003;SDS011;14546;47.590;19.022;2022-08-01T14:26:09;3.25;;;1.20;;
27003;SDS011;14546;47.590;19.022;2022-08-01T14:28:36;3.00;;;1.30;;
27003;SDS011;14546;47.590;19.022;2022-08-01T14:31:02;1.45;;;1.20;;
27003;SDS011;14546;47.590;19.022;2022-08-01T14:33:28;3.42;;;1.40;;
27003;SDS011;14546;47.590;19.022;2022-08-01T14:35:55;2.17;;;1.25;;
27003;SDS011;14546;47.590;19.022;2022-08-01T14:38:21;2.72;;;1.13;;
27003;SDS011;14546;47.590;19.022;2022-08-01T14:40:48;1.33;;;1.00;;
27003;SDS011;14546;47.590;19.022;2022-08-01T14:43:16;3.00;;;1.30;;
27003;SDS011;14546;47.590;19.022;2022-08-01T14:45:43;1.95;;;1.30;;
27003;SDS011;14546;47.590;19.022;2022-08-01T14:48:09;3.80;;;1.33;;
27003;SDS011;14546;47.590;19.022;2022-08-01T14:50:35;2.65;;;1.25;;
27003;SDS011;14546;47.590;19.022;2022-08-01T14:53:01;4.13;;;1.58;;
27003;SDS011;14546;47.590;19.022;2022-08-01T14:55:27;3.50;;;1.40;;
27003;SDS011;14546;47.590;19.022;2022-08-01T14:57:53;1.92;;;1.27;;
27003;SDS011;14546;47.590;19.022;2022-08-01T15:00:19;2.30;;;1.08;;
27003;SDS011;14546;47.590;19.022;2022-08-01T15:02:46;1.90;;;1.25;;
27003;SDS011;14546;47.590;19.022;2022-08-01T15:05:12;5.22;;;1.40;;
27003;SDS011;14546;47.590;19.022;2022-08-01T15:07:38;2.83;;;1.08;;
27003;SDS011;14546;47.590;19.022;2022-08-01T15:10:04;3.47;;;1.15;;
27003;SDS011;14546;47.590;19.022;2022-08-01T15:12:31;2.70;;;1.40;;
27003;SDS011;14546;47.590;19.022;2022-08-01T15:14:57;1.20;;;1.00;;
27003;SDS011;14546;47.590;19.022;2022-08-01T15:17:24;1.90;;;1.05;;
27003;SDS011;14546;47.590;19.022;2022-08-01T15:19:52;1.42;;;1.05;;
27003;SDS011;14546;47.590;19.022;2022-08-01T15:22:20;2.65;;;1.30;;
27003;SDS011;14546;47.590;19.022;2022-08-01T15:24:47;4.40;;;1.23;;